Time;durP1;ratioP1;P1;durP2;ratioP2;P2;SDS_P1;SDS_P2;PMS_P1;PMS_P2;Temp;Humidity;BMP_temperature;BMP_pressure;BME280_temperature;BME280_humidity;BME280_pressure;Samples;Min_cycle;Max_cycle;Signal;HPM_P1;HPM_P2
2021/03/10 00:00:19;;;;;;;;;;;;;;;0.58;100.00;95878.06;1031213;28;20440;-63
2021/03/10 00:00:50;;;;;;;;;;;;;;;0.56;100.00;95874.88;1022439;28;19908;-64
2021/03/10 00:01:20;;;;;;;;;;;;;;;0.56;100.00;95874.88;1023217;29;20431;-62
2021/03/10 00:01:50;;;;;;;;;;;;;;;0.56;100.00;95871.50;1019461;29;19938;-65
2021/03/10 00:02:20;;;;;;;;;;;;;;;0.59;100.00;95879.66;1022958;28;19914;-63
2021/03/10 00:02:51;;;;;;;;;;;;;;;0.61;100.00;95871.72;1031527;28;19918;-62
2021/03/10 00:03:21;;;;;;;;;;;;;;;0.59;100.00;95879.66;1031152;28;20407;-62
2021/03/10 00:03:51;;;;;;;;;;;;;;;0.60;100.00;95876.06;1031397;28;19957;-62
2021/03/10 00:04:22;;;;;;;;;;;;;;;0.60;100.00;95880.44;1029349;28;19921;-63
2021/03/10 00:04:52;;;;;;;;;;;;;;;0.59;100.00;95873.69;1030191;28;19910;-62
2021/03/10 00:05:22;;;;;;;;;;;;;;;0.56;100.00;95872.31;1027222;28;19929;-66
2021/03/10 00:05:52;;;;;;;;;;;;;;;0.57;100.00;95873.09;1024206;28;19911;-62
2021/03/10 00:06:23;;;;;;;;;;;;;;;0.56;100.00;95869.72;1031216;28;19910;-63
2021/03/10 00:06:53;;;;;;;;;;;;;;;0.59;100.00;95874.50;1027579;28;19925;-62
2021/03/10 00:07:24;;;;;;;;;;;;;;;0.61;100.00;95877.69;1027224;28;20400;-63
2021/03/10 00:07:55;;;;;;;;;;;;;;;0.64;100.00;95879.88;1027632;28;20402;-65
2021/03/10 00:08:25;;;;;;;;;;;;;;;0.62;100.00;95871.53;1029693;28;19915;-63
2021/03/10 00:08:57;;;;;;;;;;;;;;;0.62;100.00;95873.31;1031319;28;19917;-63
2021/03/10 00:09:27;;;;;;;;;;;;;;;0.60;100.00;95876.06;1027148;28;19918;-63
2021/03/10 00:09:58;;;;;;;;;;;;;;;0.60;100.00;95870.13;1027213;28;19914;-63
2021/03/10 00:10:28;;;;;;;;;;;;;;;0.61;100.00;95872.53;1026844;28;20758;-62
2021/03/10 00:10:58;;;;;;;;;;;;;;;0.64;100.00;95877.28;1032523;28;19926;-63
2021/03/10 00:11:28;;;;;;;;;;;;;;;0.65;100.00;95876.28;1035684;28;19924;-63
2021/03/10 00:11:59;;;;;;;;;;;;;;;0.66;100.00;95875.28;1032008;28;19920;-63
2021/03/10 00:12:29;;;;;;;;;;;;;;;0.65;100.00;95872.94;1031555;28;20310;-65
2021/03/10 00:12:59;;;;;;;;;;;;;;;0.64;100.00;95874.72;1031067;28;19922;-63
2021/03/10 00:13:30;;;;;;;;;;;;;;;0.63;100.00;95875.69;1031150;28;19968;-62
2021/03/10 00:14:00;;;;;;;;;;;;;;;0.66;100.00;95879.66;1031292;28;20466;-65
2021/03/10 00:14:30;;;;;;;;;;;;;;;0.65;100.00;95872.94;1027000;28;19914;-63
2021/03/10 00:15:01;;;;;;;;;;;;;;;0.66;100.00;95880.47;1027107;28;19930;-62
2021/03/10 00:15:31;;;;;;;;;;;;;;;0.62;100.00;95874.09;1027181;28;20586;-63
2021/03/10 00:16:02;;;;;;;;;;;;;;;0.66;100.00;95875.28;1027017;28;19911;-63
2021/03/10 00:16:32;;;;;;;;;;;;;;;0.63;100.00;95873.09;1027240;28;19929;-63
2021/03/10 00:17:02;;;;;;;;;;;;;;;0.66;100.00;95879.66;1030863;28;20771;-64
2021/03/10 00:17:33;;;;;;;;;;;;;;;0.66;100.00;95872.72;1035345;28;19909;-62
2021/03/10 00:18:03;;;;;;;;;;;;;;;0.66;100.00;95875.28;1033458;28;19914;-63
2021/03/10 00:18:33;;;;;;;;;;;;;;;0.66;100.00;95879.66;1035155;28;19921;-63
2021/03/10 00:19:04;;;;;;;;;;;;;;;0.66;100.00;95883.03;1031530;28;19918;-64
2021/03/10 00:19:34;;;;;;;;;;;;;;;0.65;100.00;95876.28;1031207;28;19917;-64
2021/03/10 00:20:05;;;;;;;;;;;;;;;0.64;100.00;95879.88;1031326;28;19918;-63
2021/03/10 00:20:35;;;;;;;;;;;;;;;0.65;100.00;95878.88;1026485;28;19917;-63
2021/03/10 00:21:06;;;;;;;;;;;;;;;0.66;100.00;95880.47;1026707;28;19918;-65
2021/03/10 00:21:36;;;;;;;;;;;;;;;0.68;100.00;95877.69;1026931;28;19918;-63
2021/03/10 00:22:06;;;;;;;;;;;;;;;0.70;100.00;95879.09;1031249;28;19914;-65
2021/03/10 00:22:37;;;;;;;;;;;;;;;0.66;100.00;95874.50;1031484;28;20651;-64
2021/03/10 00:23:07;;;;;;;;;;;;;;;0.66;100.00;95875.28;1032452;28;20485;-63
2021/03/10 00:23:37;;;;;;;;;;;;;;;0.66;100.00;95870.13;1034165;28;19924;-62
2021/03/10 00:24:08;;;;;;;;;;;;;;;0.65;100.00;95873.72;1031423;28;19949;-64
2021/03/10 00:24:38;;;;;;;;;;;;;;;0.66;100.00;95880.47;1030982;28;19925;-63
2021/03/10 00:25:09;;;;;;;;;;;;;;;0.67;100.00;95871.75;1035140;28;19945;-65
2021/03/10 00:25:39;;;;;;;;;;;;;;;0.65;100.00;95878.09;1031274;28;19910;-64
2021/03/10 00:26:09;;;;;;;;;;;;;;;0.56;100.00;95872.31;1031168;28;19965;-63
2021/03/10 00:26:40;;;;;;;;;;;;;;;0.55;100.00;95872.50;1026908;28;19976;-64
2021/03/10 00:27:23;;;;;;;;;;;;;;;0.53;100.00;95872.69;1027072;28;19918;-63
2021/03/10 00:27:53;;;;;;;;;;;;;;;0.54;100.00;95876.88;1031135;28;20550;-63
2021/03/10 00:28:23;;;;;;;;;;;;;;;0.57;100.00;95876.50;1035970;28;19913;-64
2021/03/10 00:28:53;;;;;;;;;;;;;;;0.55;100.00;95873.31;1035318;28;19913;-62
2021/03/10 00:29:24;;;;;;;;;;;;;;;0.53;100.00;95875.28;1031458;28;19925;-63
2021/03/10 00:29:58;;;;;;;;;;;;;;;0.55;100.00;95872.50;1031145;28;20288;-63
2021/03/10 00:30:28;;;;;;;;;;;;;;;0.57;100.00;95871.34;1030650;28;20450;-63
2021/03/10 00:30:58;;;;;;;;;;;;;;;0.56;100.00;95877.47;1031050;28;19925;-66
2021/03/10 00:31:28;;;;;;;;;;;;;;;0.55;100.00;95873.31;1026705;28;19925;-63
2021/03/10 00:31:59;;;;;;;;;;;;;;;0.59;100.00;95874.50;1031178;28;19954;-65
2021/03/10 00:32:29;;;;;;;;;;;;;;;0.59;100.00;95873.69;1031243;28;19914;-63
2021/03/10 00:32:59;;;;;;;;;;;;;;;0.55;100.00;95873.31;1030506;28;20410;-63
2021/03/10 00:33:30;;;;;;;;;;;;;;;0.54;100.00;95874.31;1034000;28;19918;-63
2021/03/10 00:34:00;;;;;;;;;;;;;;;0.51;100.00;95877.28;1035077;28;19918;-61
2021/03/10 00:34:30;;;;;;;;;;;;;;;0.46;100.00;95869.31;1031626;28;19914;-65
2021/03/10 00:35:02;;;;;;;;;;;;;;;0.46;100.00;95875.25;1032666;28;19952;-63
2021/03/10 00:35:32;;;;;;;;;;;;;;;0.48;100.00;95875.06;1033167;28;20430;-63
2021/03/10 00:36:03;;;;;;;;;;;;;;;0.43;100.00;95875.66;1031512;28;20157;-63
2021/03/10 00:36:33;;;;;;;;;;;;;;;0.44;100.00;95874.69;1030920;28;19928;-63
2021/03/10 00:37:03;;;;;;;;;;;;;;;0.44;100.00;95876.47;1031602;28;19910;-63
2021/03/10 00:37:33;;;;;;;;;;;;;;;0.46;100.00;95874.47;1031194;28;19965;-63
2021/03/10 00:38:04;;;;;;;;;;;;;;;0.46;100.00;95874.47;1030956;28;20295;-63
2021/03/10 00:38:34;;;;;;;;;;;;;;;0.45;100.00;95878.03;1033752;28;19913;-63
2021/03/10 00:39:04;;;;;;;;;;;;;;;0.45;100.00;95878.03;1033032;28;19926;-64
2021/03/10 00:39:35;;;;;;;;;;;;;;;0.44;100.00;95882.41;1030991;28;19917;-63
2021/03/10 00:40:05;;;;;;;;;;;;;;;0.45;100.00;95872.88;1033564;28;19921;-63
2021/03/10 00:40:35;;;;;;;;;;;;;;;0.42;100.00;95874.06;1034524;28;19988;-62
2021/03/10 00:41:06;;;;;;;;;;;;;;;0.45;100.00;95875.47;1035283;28;20403;-63
2021/03/10 00:41:37;;;;;;;;;;;;;;;0.43;100.00;95870.47;1031110;28;19928;-64
2021/03/10 00:42:07;;;;;;;;;;;;;;;0.43;100.00;95869.69;1034796;28;20012;-65
2021/03/10 00:42:37;;;;;;;;;;;;;;;0.43;100.00;95869.69;1027228;28;19974;-63
2021/03/10 00:43:08;;;;;;;;;;;;;;;0.44;100.00;95876.47;1027286;28;20439;-63
2021/03/10 00:43:38;;;;;;;;;;;;;;;0.46;100.00;95874.47;1025140;28;20001;-64
2021/03/10 00:44:08;;;;;;;;;;;;;;;0.46;100.00;95879.63;1024888;28;20528;-63
2021/03/10 00:44:39;;;;;;;;;;;;;;;0.42;100.00;95879.22;1031125;28;19922;-64
2021/03/10 00:45:09;;;;;;;;;;;;;;;0.40;100.00;95876.06;1026891;28;19918;-64
2021/03/10 00:45:39;;;;;;;;;;;;;;;0.39;100.00;95877.03;1026981;28;19954;-65
2021/03/10 00:46:10;;;;;;;;;;;;;;;0.38;100.00;95875.44;1031116;28;19929;-65
2021/03/10 00:46:40;;;;;;;;;;;;;;;0.39;100.00;95873.66;1030824;28;19914;-63
2021/03/10 00:47:10;;;;;;;;;;;;;;;0.35;100.00;95873.25;1035057;28;20430;-62
2021/03/10 00:47:41;;;;;;;;;;;;;;;0.37;100.00;95868.72;1030885;28;20045;-64
2021/03/10 00:48:11;;;;;;;;;;;;;;;0.39;100.00;95878.81;1031067;28;19925;-65
2021/03/10 00:48:41;;;;;;;;;;;;;;;0.39;100.00;95873.66;1030978;28;20436;-64
2021/03/10 00:49:12;;;;;;;;;;;;;;;0.10;100.00;95842.03;1031088;28;19918;-64
2021/03/10 00:49:42;;;;;;;;;;;;;;;0.37;100.00;95870.47;1031585;28;19928;-65
2021/03/10 00:50:21;;;;;;;;;;;;;;;0.38;100.00;95872.88;1031081;28;19926;-63
2021/03/10 00:50:52;;;;;;;;;;;;;;;0.41;100.00;95872.47;1026234;28;20077;-64
2021/03/10 00:51:22;;;;;;;;;;;;;;;0.39;100.00;95881.41;1027155;28;20411;-64
2021/03/10 00:51:52;;;;;;;;;;;;;;;0.34;100.00;95871.69;1028564;28;19919;-63
2021/03/10 00:52:22;;;;;;;;;;;;;;;0.35;100.00;95877.63;1027184;28;19949;-64
2021/03/10 00:52:53;;;;;;;;;;;;;;;0.33;100.00;95872.66;1028192;28;20303;-62
2021/03/10 00:53:24;;;;;;;;;;;;;;;0.33;100.00;95875.22;1023137;29;19918;-64
2021/03/10 00:53:54;;;;;;;;;;;;;;;0.31;100.00;95871.28;1023226;29;20396;-64
2021/03/10 00:54:24;;;;;;;;;;;;;;;0.30;100.00;95875.63;1021769;28;20057;-64
2021/03/10 00:54:55;;;;;;;;;;;;;;;0.29;100.00;95870.66;1031404;28;19921;-64
2021/03/10 00:55:25;;;;;;;;;;;;;;;0.28;100.00;95871.66;1035507;28;19922;-66
2021/03/10 00:55:55;;;;;;;;;;;;;;;0.33;100.00;95871.84;1035559;28;19921;-64
2021/03/10 00:56:25;;;;;;;;;;;;;;;0.31;100.00;95876.44;1035171;28;19930;-63
2021/03/10 00:56:56;;;;;;;;;;;;;;;0.31;100.00;95872.06;1035425;28;19964;-64
2021/03/10 00:57:26;;;;;;;;;;;;;;;0.31;100.00;95871.28;1031259;28;19909;-63
2021/03/10 00:57:57;;;;;;;;;;;;;;;0.31;100.00;95873.84;1031040;28;19914;-63
2021/03/10 00:58:27;;;;;;;;;;;;;;;0.31;100.00;95876.44;1027232;28;19925;-62
2021/03/10 00:58:57;;;;;;;;;;;;;;;0.33;100.00;95879.59;1023233;28;19923;-65
2021/03/10 00:59:28;;;;;;;;;;;;;;;0.31;100.00;95871.28;1027010;28;19922;-65
2021/03/10 00:59:58;;;;;;;;;;;;;;;0.28;100.00;95864.72;1023278;28;19918;-63
2021/03/10 01:00:28;;;;;;;;;;;;;;;0.30;100.00;95870.44;1026586;28;19945;-66
2021/03/10 01:00:59;;;;;;;;;;;;;;;0.33;100.00;95870.06;1031081;28;19910;-63
2021/03/10 01:01:29;;;;;;;;;;;;;;;0.33;100.00;95862.31;1034364;28;19917;-63
2021/03/10 01:01:59;;;;;;;;;;;;;;;0.33;100.00;95869.28;1035648;28;19965;-63
2021/03/10 01:02:29;;;;;;;;;;;;;;;0.32;100.00;95865.91;1035596;28;20520;-65
2021/03/10 01:03:00;;;;;;;;;;;;;;;0.34;100.00;95871.69;1035308;28;20350;-65
2021/03/10 01:03:30;;;;;;;;;;;;;;;0.36;100.00;95871.47;1035224;28;19987;-63
2021/03/10 01:04:00;;;;;;;;;;;;;;;0.35;100.00;95868.09;1035305;28;20400;-66
2021/03/10 01:04:31;;;;;;;;;;;;;;;0.34;100.00;95868.31;1034256;28;19925;-64
2021/03/10 01:05:01;;;;;;;;;;;;;;;0.34;100.00;95865.72;1031268;28;19917;-63
2021/03/10 01:05:31;;;;;;;;;;;;;;;0.33;100.00;95858.94;1035347;28;19910;-64
2021/03/10 01:06:02;;;;;;;;;;;;;;;0.33;100.00;95858.94;1035259;28;19914;-65
2021/03/10 01:06:32;;;;;;;;;;;;;;;0.32;100.00;95863.31;1026782;28;19914;-63
2021/03/10 01:07:02;;;;;;;;;;;;;;;0.34;100.00;95857.97;1023198;29;19922;-63
2021/03/10 01:07:33;;;;;;;;;;;;;;;0.32;100.00;95863.31;1023197;28;20351;-64
2021/03/10 01:08:03;;;;;;;;;;;;;;;0.33;100.00;95856.38;1024525;28;19990;-64
2021/03/10 01:08:33;;;;;;;;;;;;;;;0.34;100.00;95860.56;1031040;28;19914;-64
2021/03/10 01:09:05;;;;;;;;;;;;;;;0.36;100.00;95858.56;1031097;28;19918;-63
2021/03/10 01:09:35;;;;;;;;;;;;;;;0.34;100.00;95851.03;1034796;28;19913;-62
2021/03/10 01:10:06;;;;;;;;;;;;;;;0.35;100.00;95859.56;1035351;28;19918;-64
2021/03/10 01:10:36;;;;;;;;;;;;;;;0.35;100.00;95857.78;1034613;28;19910;-66
2021/03/10 01:11:06;;;;;;;;;;;;;;;0.35;100.00;95860.34;1035259;28;20064;-65
2021/03/10 01:11:37;;;;;;;;;;;;;;;0.35;100.00;95862.16;1035534;28;19917;-64
2021/03/10 01:12:08;;;;;;;;;;;;;;;0.36;100.00;95861.16;1035298;28;19922;-64
2021/03/10 01:12:38;;;;;;;;;;;;;;;0.37;100.00;95860.97;1031257;28;20008;-64
2021/03/10 01:13:08;;;;;;;;;;;;;;;0.39;100.00;95863.34;1030649;28;19996;-63
2021/03/10 01:13:39;;;;;;;;;;;;;;;0.41;100.00;95861.38;1031126;28;19925;-63
2021/03/10 01:14:09;;;;;;;;;;;;;;;0.39;100.00;95858.97;1031238;28;19910;-63
2021/03/10 01:14:39;;;;;;;;;;;;;;;0.39;100.00;95858.97;1031335;28;19980;-62
2021/03/10 01:15:11;;;;;;;;;;;;;;;0.40;100.00;95855.41;1031487;28;19918;-64
2021/03/10 01:15:41;;;;;;;;;;;;;;;0.41;100.00;95857.00;1031446;28;19918;-64
2021/03/10 01:16:12;;;;;;;;;;;;;;;0.44;100.00;95858.41;1031717;28;19960;-64
2021/03/10 01:16:42;;;;;;;;;;;;;;;0.46;100.00;95853.81;1034777;28;20390;-64
2021/03/10 01:17:12;;;;;;;;;;;;;;;0.44;100.00;95851.44;1031102;28;19914;-65
2021/03/10 01:17:43;;;;;;;;;;;;;;;0.41;100.00;95856.22;1031047;28;19920;-64
2021/03/10 01:18:14;;;;;;;;;;;;;;;0.42;100.00;95860.38;1030719;28;19949;-65
2021/03/10 01:18:44;;;;;;;;;;;;;;;0.38;100.00;95849.63;1030962;28;19917;-64
2021/03/10 01:19:15;;;;;;;;;;;;;;;0.39;100.00;95853.00;1030981;28;19918;-63
2021/03/10 01:19:45;;;;;;;;;;;;;;;0.38;100.00;95856.59;1030624;28;19910;-61
2021/03/10 01:20:16;;;;;;;;;;;;;;;0.41;100.00;95856.22;1035311;28;19920;-65
2021/03/10 01:20:46;;;;;;;;;;;;;;;0.37;100.00;95849.81;1034447;28;19920;-65
2021/03/10 01:21:17;;;;;;;;;;;;;;;0.36;100.00;95845.66;1031361;28;19917;-65
2021/03/10 01:21:47;;;;;;;;;;;;;;;0.36;100.00;95849.03;1033670;28;20256;-63
2021/03/10 01:22:18;;;;;;;;;;;;;;;0.37;100.00;95852.41;1035187;28;19910;-63
2021/03/10 01:22:48;;;;;;;;;;;;;;;0.38;100.00;95859.97;1035253;28;19956;-64
2021/03/10 01:23:18;;;;;;;;;;;;;;;0.42;100.00;95857.78;1030622;28;20490;-66
2021/03/10 01:23:49;;;;;;;;;;;;;;;0.41;100.00;95856.22;1030983;28;20421;-64
2021/03/10 01:24:19;;;;;;;;;;;;;;;0.45;100.00;95853.03;1031314;28;19941;-64
2021/03/10 01:24:49;;;;;;;;;;;;;;;0.43;100.00;95857.56;1031231;28;19913;-63
2021/03/10 01:25:20;;;;;;;;;;;;;;;0.41;100.00;95854.41;1030826;28;20445;-64
2021/03/10 01:25:50;;;;;;;;;;;;;;;0.39;100.00;95853.81;1026710;28;19965;-65
2021/03/10 01:26:20;;;;;;;;;;;;;;;0.40;100.00;95859.75;1026753;28;20359;-62
2021/03/10 01:26:51;;;;;;;;;;;;;;;0.40;100.00;95854.59;1029042;28;20009;-63
2021/03/10 01:27:21;;;;;;;;;;;;;;;0.42;100.00;95856.00;1027792;28;19914;-66
2021/03/10 01:27:51;;;;;;;;;;;;;;;0.39;100.00;95858.19;1035098;28;19917;-64
2021/03/10 01:28:22;;;;;;;;;;;;;;;0.40;100.00;95854.59;1037639;28;19913;-63
2021/03/10 01:28:52;;;;;;;;;;;;;;;0.40;100.00;95852.84;1039270;28;19921;-65
2021/03/10 01:29:22;;;;;;;;;;;;;;;0.42;100.00;95852.63;1029054;28;19910;-61
2021/03/10 01:29:53;;;;;;;;;;;;;;;0.41;100.00;95859.56;1022999;29;19910;-66
2021/03/10 01:30:23;;;;;;;;;;;;;;;0.43;100.00;95859.38;1022405;28;20408;-62
2021/03/10 01:30:53;;;;;;;;;;;;;;;0.43;100.00;95849.84;1022557;28;19907;-64
2021/03/10 01:31:24;;;;;;;;;;;;;;;0.43;100.00;95852.41;1031171;28;20390;-64
2021/03/10 01:31:54;;;;;;;;;;;;;;;0.41;100.00;95849.25;1029056;28;19913;-63
2021/03/10 01:32:24;;;;;;;;;;;;;;;0.41;100.00;95845.88;1027064;28;19918;-64
2021/03/10 01:32:56;;;;;;;;;;;;;;;0.42;100.00;95848.25;1031114;28;20197;-65
2021/03/10 01:33:26;;;;;;;;;;;;;;;0.44;100.00;95843.69;1030780;28;19910;-64
2021/03/10 01:33:56;;;;;;;;;;;;;;;0.44;100.00;95845.50;1031167;28;19957;-64
2021/03/10 01:34:27;;;;;;;;;;;;;;;0.44;100.00;95851.44;1031669;28;19918;-65
2021/03/10 01:34:57;;;;;;;;;;;;;;;0.43;100.00;95844.69;1033071;28;19941;-64
2021/03/10 01:35:27;;;;;;;;;;;;;;;0.46;100.00;95848.66;1030713;28;20718;-65
2021/03/10 01:35:58;;;;;;;;;;;;;;;0.44;100.00;95846.28;1027065;28;20542;-64
2021/03/10 01:36:28;;;;;;;;;;;;;;;0.44;100.00;95846.28;1023333;28;19921;-65
2021/03/10 01:36:58;;;;;;;;;;;;;;;0.44;100.00;95846.28;1028367;28;19914;-65
2021/03/10 01:37:28;;;;;;;;;;;;;;;0.47;100.00;95853.63;1031315;28;20465;-63
2021/03/10 01:37:59;;;;;;;;;;;;;;;0.50;100.00;95849.84;1035023;28;19968;-65
2021/03/10 01:38:29;;;;;;;;;;;;;;;0.51;100.00;95846.28;1032151;28;19965;-64
2021/03/10 01:38:59;;;;;;;;;;;;;;;0.49;100.00;95848.25;1026840;28;19946;-63
2021/03/10 01:39:30;;;;;;;;;;;;;;;0.52;100.00;95845.28;1027197;28;19918;-64
2021/03/10 01:40:00;;;;;;;;;;;;;;;0.50;100.00;95849.84;1024490;28;19962;-65
2021/03/10 01:40:31;;;;;;;;;;;;;;;0.50;100.00;95847.25;1031411;28;19922;-64
2021/03/10 01:41:01;;;;;;;;;;;;;;;0.51;100.00;95846.28;1031098;28;19961;-64
2021/03/10 01:41:31;;;;;;;;;;;;;;;0.50;100.00;95844.69;1030951;28;19994;-64
2021/03/10 01:42:02;;;;;;;;;;;;;;;0.53;100.00;95852.03;1026809;28;19965;-64
2021/03/10 01:42:33;;;;;;;;;;;;;;;0.53;100.00;95839.13;1027349;28;19918;-64
2021/03/10 01:43:03;;;;;;;;;;;;;;;0.47;100.00;95845.09;1027143;28;19915;-66
2021/03/10 01:43:33;;;;;;;;;;;;;;;0.43;100.00;95842.09;1029676;28;19920;-64
2021/03/10 01:44:04;;;;;;;;;;;;;;;0.44;100.00;95848.06;1035039;28;20407;-67
2021/03/10 01:44:34;;;;;;;;;;;;;;;0.44;100.00;95846.28;1035276;28;20382;-63
2021/03/10 01:45:05;;;;;;;;;;;;;;;0.46;100.00;95848.66;1035342;28;20391;-63
2021/03/10 01:45:35;;;;;;;;;;;;;;;0.46;100.00;95846.88;1035211;28;19960;-63
2021/03/10 01:46:06;;;;;;;;;;;;;;;0.48;100.00;95841.53;1035123;28;19948;-65
2021/03/10 01:46:39;;;;;;;;;;;;;;;0.47;100.00;95845.09;1031032;28;19914;-63
2021/03/10 01:47:10;;;;;;;;;;;;;;;0.50;100.00;95838.72;1023649;28;20004;-64
2021/03/10 01:47:41;;;;;;;;;;;;;;;0.46;100.00;95833.97;1027020;28;19960;-63
2021/03/10 01:48:11;;;;;;;;;;;;;;;0.49;100.00;95843.09;1027629;28;19941;-64
2021/03/10 01:48:42;;;;;;;;;;;;;;;0.51;100.00;95846.28;1026883;28;20458;-64
2021/03/10 01:49:12;;;;;;;;;;;;;;;0.49;100.00;95843.09;1031083;28;20012;-65
2021/03/10 01:49:42;;;;;;;;;;;;;;;0.47;100.00;95843.31;1031026;28;19928;-64
2021/03/10 01:50:15;;;;;;;;;;;;;;;0.47;100.00;95845.09;1030975;28;20026;-64
2021/03/10 01:50:46;;;;;;;;;;;;;;;0.24;100.00;95806.75;1031268;28;20301;-64
2021/03/10 01:51:16;;;;;;;;;;;;;;;0.44;100.00;95832.59;1026991;28;20304;-65
2021/03/10 01:51:46;;;;;;;;;;;;;;;0.44;100.00;95840.34;1023172;28;19915;-63
2021/03/10 01:52:17;;;;;;;;;;;;;;;0.45;100.00;95841.91;1023007;28;19907;-64
2021/03/10 01:52:47;;;;;;;;;;;;;;;0.46;100.00;95835.75;1022989;29;19907;-63
2021/03/10 01:53:17;;;;;;;;;;;;;;;0.44;100.00;95841.13;1019176;29;19933;-64
2021/03/10 01:53:48;;;;;;;;;;;;;;;0.42;100.00;95835.34;1023036;28;20395;-64
2021/03/10 01:54:18;;;;;;;;;;;;;;;0.43;100.00;95833.56;1026737;28;19906;-63
2021/03/10 01:54:48;;;;;;;;;;;;;;;0.42;100.00;95844.88;1027068;28;20068;-63
2021/03/10 01:55:19;;;;;;;;;;;;;;;0.40;100.00;95833.94;1035023;28;19906;-64
2021/03/10 01:55:49;;;;;;;;;;;;;;;0.38;100.00;95833.38;1030848;28;19916;-63
2021/03/10 01:56:19;;;;;;;;;;;;;;;0.41;100.00;95835.56;1027126;28;19914;-64
2021/03/10 01:56:50;;;;;;;;;;;;;;;0.37;100.00;95835.16;1026913;28;19921;-64
2021/03/10 01:57:20;;;;;;;;;;;;;;;0.14;100.00;95798.59;1018688;29;19918;-63
2021/03/10 01:57:50;;;;;;;;;;;;;;;0.37;100.00;95829.19;1011154;29;20002;-64
2021/03/10 01:58:21;;;;;;;;;;;;;;;0.40;100.00;95831.38;1011253;29;19918;-64
2021/03/10 01:58:51;;;;;;;;;;;;;;;0.40;100.00;95823.63;1010939;29;20010;-64
2021/03/10 01:59:22;;;;;;;;;;;;;;;0.41;100.00;95832.97;1015047;28;19926;-65
2021/03/10 01:59:52;;;;;;;;;;;;;;;0.43;100.00;95838.72;1027052;28;20444;-65
2021/03/10 02:00:24;;;;;;;;;;;;;;;0.42;100.00;95837.94;1031425;28;19972;-63
2021/03/10 02:00:54;;;;;;;;;;;;;;;0.42;100.00;95832.78;1035101;28;19980;-64
2021/03/10 02:01:25;;;;;;;;;;;;;;;0.45;100.00;95831.59;1035062;28;20333;-64
2021/03/10 02:01:55;;;;;;;;;;;;;;;0.43;100.00;95836.13;1035004;28;19944;-62
2021/03/10 02:02:25;;;;;;;;;;;;;;;0.43;100.00;95833.56;1031521;28;19925;-64
2021/03/10 02:02:56;;;;;;;;;;;;;;;0.44;100.00;95828.22;1030909;28;19921;-64
2021/03/10 02:03:26;;;;;;;;;;;;;;;0.46;100.00;95830.59;1027418;28;19933;-62
2021/03/10 02:03:56;;;;;;;;;;;;;;;0.44;100.00;95830.78;1028627;28;19926;-63
2021/03/10 02:04:26;;;;;;;;;;;;;;;0.45;100.00;95839.34;1031061;28;19965;-64
2021/03/10 02:04:57;;;;;;;;;;;;;;;0.45;100.00;95834.97;1022869;28;19957;-63
2021/03/10 02:05:27;;;;;;;;;;;;;;;0.45;100.00;95836.75;1022635;28;20426;-64
2021/03/10 02:05:57;;;;;;;;;;;;;;;0.47;100.00;95842.53;1019118;29;19919;-63
2021/03/10 02:06:30;;;;;;;;;;;;;;;0.44;100.00;95830.78;1023137;28;19923;-66
2021/03/10 02:07:20;;;;;;;;;;;;;;;0.43;100.00;95831.78;1026920;28;19918;-65
2021/03/10 02:08:05;;;;;;;;;;;;;;;0.43;100.00;95834.34;1035147;28;20441;-63
2021/03/10 02:08:39;;;;;;;;;;;;;;;0.46;100.00;95838.34;1030829;28;19925;-63
2021/03/10 02:09:11;;;;;;;;;;;;;;;0.45;100.00;95826.44;1029837;28;19918;-64
2021/03/10 02:09:45;;;;;;;;;;;;;;;0.46;100.00;95838.34;1022838;29;20025;-63
2021/03/10 02:10:34;;;;;;;;;;;;;;;0.46;100.00;95835.75;1022996;28;19945;-64
2021/03/10 02:11:10;;;;;;;;;;;;;;;0.47;100.00;95829.63;1022943;29;19987;-64
2021/03/10 02:11:40;;;;;;;;;;;;;;;0.46;100.00;95828.00;1026327;28;20653;-64
2021/03/10 02:12:13;;;;;;;;;;;;;;;0.45;100.00;95823.84;1019804;29;20018;-61
2021/03/10 02:13:01;;;;;;;;;;;;;;;0.45;100.00;95829.78;1015255;29;19919;-63
2021/03/10 02:13:36;;;;;;;;;;;;;;;0.44;100.00;95827.44;1017823;29;19919;-63
2021/03/10 02:14:06;;;;;;;;;;;;;;;0.43;100.00;95831.78;1025129;28;19984;-63
2021/03/10 02:14:44;;;;;;;;;;;;;;;0.45;100.00;95826.44;1030128;28;19914;-63
2021/03/10 02:15:28;;;;;;;;;;;;;;;0.47;100.00;95829.63;1022961;29;19930;-64
2021/03/10 02:16:06;;;;;;;;;;;;;;;0.45;100.00;95826.44;1021517;29;19919;-65
2021/03/10 02:16:54;;;;;;;;;;;;;;;0.47;100.00;95830.41;1023125;29;20420;-63
2021/03/10 02:17:25;;;;;;;;;;;;;;;0.48;100.00;95831.19;1030601;28;20391;-66
2021/03/10 02:18:06;;;;;;;;;;;;;;;0.47;100.00;95832.19;1030272;28;20004;-64
2021/03/10 02:18:37;;;;;;;;;;;;;;;0.44;100.00;95833.38;1031039;28;19921;-66
2021/03/10 02:19:29;;;;;;;;;;;;;;;0.45;100.00;95836.75;1030789;28;19910;-64
2021/03/10 02:20:03;;;;;;;;;;;;;;;0.45;100.00;95829.00;1031264;28;19952;-66
2021/03/10 02:20:33;;;;;;;;;;;;;;;0.45;100.00;95829.00;1030421;28;20490;-65
2021/03/10 02:21:07;;;;;;;;;;;;;;;0.44;100.00;95833.38;1030586;28;19916;-63
2021/03/10 02:21:40;;;;;;;;;;;;;;;0.44;100.00;95835.16;1030850;28;19910;-64
2021/03/10 02:22:10;;;;;;;;;;;;;;;0.50;100.00;95831.00;1031054;28;19902;-64
2021/03/10 02:22:40;;;;;;;;;;;;;;;0.51;100.00;95833.38;1031246;28;19910;-63
2021/03/10 02:23:29;;;;;;;;;;;;;;;0.50;100.00;95828.41;1031662;28;19910;-65
2021/03/10 02:24:18;;;;;;;;;;;;;;;0.48;100.00;95831.19;1031242;28;19917;-64
2021/03/10 02:24:51;;;;;;;;;;;;;;;0.47;100.00;95837.34;1027029;28;20369;-65
2021/03/10 02:25:30;;;;;;;;;;;;;;;0.48;100.00;95831.19;1027517;28;19961;-63
2021/03/10 02:26:00;;;;;;;;;;;;;;;0.48;100.00;95831.19;1030432;28;19917;-65
2021/03/10 02:26:39;;;;;;;;;;;;;;;0.50;100.00;95834.34;1027038;28;20574;-65
2021/03/10 02:27:32;;;;;;;;;;;;;;;0.48;100.00;95833.78;1027446;28;19910;-66
2021/03/10 02:28:02;;;;;;;;;;;;;;;0.49;100.00;95837.94;1030942;28;19909;-65
2021/03/10 02:28:32;;;;;;;;;;;;;;;0.47;100.00;95839.94;1027178;28;19926;-64
2021/03/10 02:29:12;;;;;;;;;;;;;;;0.47;100.00;95838.16;1027073;28;19910;-66
2021/03/10 02:29:42;;;;;;;;;;;;;;;0.49;100.00;95839.72;1027096;28;19906;-64
2021/03/10 02:30:19;;;;;;;;;;;;;;;0.52;100.00;95831.59;1027941;28;19914;-64
2021/03/10 02:30:51;;;;;;;;;;;;;;;0.49;100.00;95837.94;1026716;28;20005;-64
2021/03/10 02:31:21;;;;;;;;;;;;;;;0.49;100.00;95835.34;1015839;29;19912;-64
2021/03/10 02:31:51;;;;;;;;;;;;;;;0.52;100.00;95840.13;1019040;29;19922;-64
2021/03/10 02:32:22;;;;;;;;;;;;;;;0.52;100.00;95837.56;1019515;29;19914;-65
2021/03/10 02:32:55;;;;;;;;;;;;;;;0.52;100.00;95837.56;1020642;29;19977;-64
2021/03/10 02:33:26;;;;;;;;;;;;;;;0.53;100.00;95838.34;1027036;28;20033;-66
2021/03/10 02:33:57;;;;;;;;;;;;;;;0.52;100.00;95842.72;1023884;28;19961;-65
2021/03/10 02:34:28;;;;;;;;;;;;;;;0.54;100.00;95835.56;1019461;28;20491;-65
2021/03/10 02:34:58;;;;;;;;;;;;;;;0.55;100.00;95837.16;1023111;29;20288;-64
2021/03/10 02:35:28;;;;;;;;;;;;;;;0.57;100.00;95831.78;1021550;29;19922;-64
2021/03/10 02:36:01;;;;;;;;;;;;;;;0.59;100.00;95843.50;1019045;29;19911;-64
2021/03/10 02:36:31;;;;;;;;;;;;;;;0.60;100.00;95839.94;1025916;28;19921;-65
2021/03/10 02:37:02;;;;;;;;;;;;;;;0.59;100.00;95842.72;1026982;28;19929;-65
2021/03/10 02:37:32;;;;;;;;;;;;;;;0.60;100.00;95844.31;1023204;29;20531;-65
2021/03/10 02:38:03;;;;;;;;;;;;;;;0.60;100.00;95839.94;1024354;28;19906;-66
2021/03/10 02:38:33;;;;;;;;;;;;;;;0.57;100.00;95839.53;1031034;28;19914;-66
2021/03/10 02:39:04;;;;;;;;;;;;;;;0.58;100.00;95841.94;1031148;28;19933;-64
2021/03/10 02:39:34;;;;;;;;;;;;;;;0.58;100.00;95844.50;1026530;28;19918;-66
2021/03/10 02:40:05;;;;;;;;;;;;;;;0.61;100.00;95848.50;1022853;29;20432;-65
2021/03/10 02:40:36;;;;;;;;;;;;;;;0.58;100.00;95847.09;1022413;28;19918;-63
2021/03/10 02:41:06;;;;;;;;;;;;;;;0.57;100.00;95847.28;1027376;28;20366;-62
2021/03/10 02:41:36;;;;;;;;;;;;;;;0.57;100.00;95844.69;1033745;28;19929;-71
2021/03/10 02:42:07;;;;;;;;;;;;;;;0.55;100.00;95842.31;1035077;28;20394;-65
2021/03/10 02:42:37;;;;;;;;;;;;;;;0.56;100.00;95836.16;1034592;28;20377;-63
2021/03/10 02:43:08;;;;;;;;;;;;;;;0.59;100.00;95848.69;1029093;28;19917;-63
2021/03/10 02:43:38;;;;;;;;;;;;;;;0.58;100.00;95847.09;1031012;28;20395;-64